Time;durP1;ratioP1;P1;durP2;ratioP2;P2;SDS_P1;SDS_P2;PMS_P1;PMS_P2;Temp;Humidity;BMP_temperature;BMP_pressure;BME280_temperature;BME280_humidity;BME280_pressure;Samples;Min_cycle;Max_cycle;Signal;HPM_P1;HPM_P2
2021/03/06 00:02:14;;;;;;;64.72;21.65;;;;;;;-3.51;74.67;99978.16;2178692;81;21285;-68
2021/03/06 00:05:16;;;;;;;68.28;22.15;;;;;;;-3.49;74.43;99977.78;2178475;81;21111;-68
2021/03/06 00:08:19;;;;;;;65.32;20.70;;;;;;;-3.42;74.37;99974.86;2178470;81;21340;-67
2021/03/06 00:11:22;;;;;;;63.60;21.55;;;;;;;-3.37;73.94;99976.65;2178405;81;21281;-67
2021/03/06 00:14:24;;;;;;;63.42;21.87;;;;;;;-3.47;73.88;99986.34;2178395;82;21159;-69
2021/03/06 00:17:26;;;;;;;88.90;28.05;;;;;;;-3.61;73.99;99996.39;2171134;81;21780;-67
2021/03/06 00:20:30;;;;;;;84.42;28.23;;;;;;;-3.70;74.21;99991.13;2161130;82;21281;-67
2021/03/06 00:23:32;;;;;;;79.70;29.00;;;;;;;-3.77;74.40;99990.59;2161045;82;21163;-70
2021/03/06 00:26:34;;;;;;;86.45;29.52;;;;;;;-3.77;74.75;99985.47;2161067;82;21166;-69
2021/03/06 00:29:36;;;;;;;73.90;27.75;;;;;;;-3.74;74.91;99984.23;2160985;82;21170;-66
2021/03/06 00:32:38;;;;;;;80.67;27.82;;;;;;;-3.57;75.05;99984.06;2161027;82;21163;-70
2021/03/06 00:35:40;;;;;;;74.07;24.35;;;;;;;-3.43;74.92;99980.82;2161090;82;21143;-71
2021/03/06 00:38:42;;;;;;;80.42;26.00;;;;;;;-3.43;74.67;99975.29;2161065;82;21603;-71
2021/03/06 00:41:45;;;;;;;71.17;25.35;;;;;;;-3.38;75.15;99980.05;2160992;82;21155;-71
2021/03/06 00:44:47;;;;;;;69.67;24.52;;;;;;;-3.59;74.24;99992.56;2161201;82;21278;-68
2021/03/06 00:47:49;;;;;;;54.85;21.42;;;;;;;-3.79;74.09;99980.31;2161530;82;21294;-67
2021/03/06 00:50:54;;;;;;;57.25;20.52;;;;;;;-3.81;74.29;99983.69;2161050;82;21626;-66
2021/03/06 00:53:56;;;;;;;52.17;20.48;;;;;;;-3.80;74.33;99987.56;2161188;82;21286;-67
2021/03/06 00:56:58;;;;;;;56.58;19.10;;;;;;;-3.76;74.67;99979.52;2161155;82;21773;-69
2021/03/06 01:00:00;;;;;;;49.98;18.65;;;;;;;-3.77;75.57;99972.22;2161414;82;21292;-67
2021/03/06 01:03:02;;;;;;;44.95;16.25;;;;;;;-3.85;75.96;99978.52;2161327;82;21143;-68
2021/03/06 01:06:04;;;;;;;44.13;16.40;;;;;;;-3.95;76.47;99981.78;2161224;82;21733;-69
2021/03/06 01:09:06;;;;;;;59.33;20.08;;;;;;;-4.05;76.29;99982.44;2161169;82;21322;-67
2021/03/06 01:12:08;;;;;;;46.92;18.98;;;;;;;-4.16;76.33;99975.02;2161286;82;21740;-67
2021/03/06 01:15:10;;;;;;;46.55;17.23;;;;;;;-4.22;76.34;99977.05;2161166;82;21182;-70
2021/03/06 01:18:12;;;;;;;44.77;17.23;;;;;;;-4.10;76.43;99981.52;2167049;81;21166;-67
2021/03/06 01:21:15;;;;;;;;;;;;;;;-4.02;76.29;99982.52;2144184;82;21286;-69
2021/03/06 01:24:17;;;;;;;51.05;16.82;;;;;;;-3.99;76.09;99986.41;2171651;82;20221;-66
2021/03/06 01:27:19;;;;;;;46.70;17.70;;;;;;;-3.95;75.51;99984.73;2171465;82;21285;-68
2021/03/06 01:30:21;;;;;;;51.45;18.37;;;;;;;-3.91;76.06;99992.50;2171311;82;21708;-66
2021/03/06 01:33:23;;;;;;;45.25;16.37;;;;;;;-3.88;76.04;99996.42;2171309;82;21300;-66
2021/03/06 01:36:25;;;;;;;46.58;17.77;;;;;;;-3.98;76.07;100003.48;2171360;82;21709;-66
2021/03/06 01:39:27;;;;;;;53.02;17.87;;;;;;;-4.04;76.43;100002.11;2171666;82;21297;-68
2021/03/06 01:42:29;;;;;;;51.83;19.75;;;;;;;-4.13;76.76;100003.25;2171404;82;21280;-66
2021/03/06 01:45:31;;;;;;;50.73;18.20;;;;;;;-4.17;76.52;99997.19;2171321;82;21284;-66
2021/03/06 01:48:33;;;;;;;46.20;17.85;;;;;;;-4.27;76.67;99994.03;2171327;82;21267;-67
2021/03/06 01:51:36;;;;;;;;;;;;;;;-4.27;76.93;99997.44;2174008;82;21594;-69
2021/03/06 01:54:38;;;;;;;47.37;18.13;;;;;;;-4.22;76.77;99994.55;2171395;82;20256;-67
2021/03/06 01:57:40;;;;;;;46.95;16.65;;;;;;;-4.14;76.72;100001.52;2171231;82;21143;-66
2021/03/06 02:00:42;;;;;;;43.35;15.63;;;;;;;-4.15;76.89;99999.38;2171440;82;21280;-66
2021/03/06 02:03:44;;;;;;;44.70;16.30;;;;;;;-4.08;77.71;100007.63;2171280;82;21254;-69
2021/03/06 02:06:46;;;;;;;40.28;13.70;;;;;;;-4.10;76.83;100004.58;2171314;82;21146;-68
2021/03/06 02:09:48;;;;;;;39.13;13.85;;;;;;;-4.12;76.86;100006.23;2171257;82;21178;-67
2021/03/06 02:12:50;;;;;;;38.33;12.90;;;;;;;-4.23;77.35;100003.07;2171340;82;21313;-70
2021/03/06 02:15:52;;;;;;;36.10;12.40;;;;;;;-4.27;77.91;100006.84;2171281;82;21706;-67
2021/03/06 02:18:55;;;;;;;33.42;11.40;;;;;;;-4.41;78.73;100007.46;2176553;81;21289;-69
2021/03/06 02:21:57;;;;;;;35.38;12.07;;;;;;;-4.49;78.64;100006.87;2178479;82;21293;-67
2021/03/06 02:24:59;;;;;;;37.78;12.93;;;;;;;-4.49;78.76;100011.57;2150579;82;21147;-66
2021/03/06 02:28:01;;;;;;;38.35;12.05;;;;;;;-4.43;78.78;100013.38;2178544;81;21752;-67
2021/03/06 02:31:03;;;;;;;37.10;11.90;;;;;;;-4.43;79.48;100016.80;2178847;81;21147;-67
2021/03/06 02:34:05;;;;;;;35.65;12.23;;;;;;;-4.46;79.45;100026.14;2178617;81;21716;-70
2021/03/06 02:37:08;;;;;;;34.78;12.20;;;;;;;-4.55;79.70;100018.72;2178900;81;21142;-69
2021/03/06 02:40:10;;;;;;;32.58;11.15;;;;;;;-4.59;80.50;100019.48;2178508;81;21276;-67
2021/03/06 02:43:12;;;;;;;30.32;10.93;;;;;;;-4.62;81.19;100024.98;2178521;82;21277;-70
2021/03/06 02:46:14;;;;;;;40.20;13.70;;;;;;;-4.66;80.73;100030.87;2178634;81;21288;-68
2021/03/06 02:49:16;;;;;;;35.25;12.90;;;;;;;-4.67;80.63;100026.58;2178411;81;21182;-70
2021/03/06 02:52:18;;;;;;;36.35;12.63;;;;;;;-4.63;80.07;100028.36;2178576;81;22034;-69
2021/03/06 02:55:20;;;;;;;36.70;12.82;;;;;;;-4.60;79.53;100024.16;2150686;82;21269;-67
2021/03/06 02:58:22;;;;;;;35.63;11.85;;;;;;;-4.57;79.32;100023.36;2178593;81;21281;-66
2021/03/06 03:01:24;;;;;;;36.93;12.90;;;;;;;-4.53;78.94;100029.84;2178572;82;21276;-68
2021/03/06 03:04:26;;;;;;;35.43;11.80;;;;;;;-4.53;78.84;100037.52;2178871;81;21115;-67
2021/03/06 03:07:29;;;;;;;35.28;12.47;;;;;;;-4.48;78.89;100038.92;2178504;81;21618;-70
2021/03/06 03:10:31;;;;;;;37.45;12.90;;;;;;;-4.43;79.36;100042.84;2178827;81;21142;-67
2021/03/06 03:13:33;;;;;;;34.30;11.83;;;;;;;-4.51;79.53;100049.11;2178458;81;21613;-70
2021/03/06 03:16:35;;;;;;;37.40;12.88;;;;;;;-4.57;79.85;100049.84;2178437;81;21285;-68
2021/03/06 03:19:37;;;;;;;32.45;12.15;;;;;;;-4.73;80.50;100052.48;2163033;81;21214;-70
2021/03/06 03:22:39;;;;;;;37.40;13.10;;;;;;;-4.73;80.50;100052.48;2161166;82;21155;-70
2021/03/06 03:25:41;;;;;;;35.25;12.70;;;;;;;-4.81;80.28;100055.72;2161411;82;21127;-70
2021/03/06 03:28:43;;;;;;;39.03;13.35;;;;;;;-4.87;80.26;100059.91;2161076;82;21579;-68
2021/03/06 03:31:45;;;;;;;40.95;12.80;;;;;;;-4.86;80.69;100065.88;2161166;82;21290;-68
2021/03/06 03:34:47;;;;;;;34.75;12.18;;;;;;;-4.84;81.17;100068.47;2161047;82;21715;-66
2021/03/06 03:37:49;;;;;;;33.55;11.43;;;;;;;-4.87;81.05;100070.53;2161063;82;21139;-70
2021/03/06 03:40:51;;;;;;;35.85;12.75;;;;;;;-4.90;81.50;100067.91;2161032;82;21135;-69
2021/03/06 03:43:53;;;;;;;37.03;12.90;;;;;;;-4.95;81.55;100064.41;2161122;82;21151;-69
2021/03/06 03:46:55;;;;;;;27.90;10.90;;;;;;;-4.97;80.82;100062.22;2161085;82;21144;-67
2021/03/06 03:49:57;;;;;;;36.38;12.90;;;;;;;-4.96;80.59;100075.05;2161017;82;21143;-69
2021/03/06 03:52:59;;;;;;;35.63;12.78;;;;;;;-4.99;80.86;100081.37;2161037;82;21159;-70
2021/03/06 03:56:01;;;;;;;39.15;12.47;;;;;;;-5.05;81.83;100076.14;2161281;82;21281;-70
2021/03/06 03:59:03;;;;;;;38.20;11.97;;;;;;;-5.08;81.70;100076.92;2161139;82;21139;-71
2021/03/06 04:02:05;;;;;;;35.78;13.00;;;;;;;-5.13;81.36;100077.66;2161163;82;21539;-69
2021/03/06 04:05:07;;;;;;;36.50;13.55;;;;;;;-5.13;81.88;100085.33;2161033;82;21147;-70
2021/03/06 04:08:09;;;;;;;36.85;12.78;;;;;;;-5.16;81.20;100083.98;2161148;82;21268;-70
2021/03/06 04:11:11;;;;;;;35.38;12.20;;;;;;;-5.15;80.99;100092.97;2161315;82;21301;-70
2021/03/06 04:14:13;;;;;;;40.50;11.78;;;;;;;-5.15;81.36;100094.67;2161158;82;21571;-70
2021/03/06 04:17:16;;;;;;;39.80;13.03;;;;;;;-5.15;81.77;100094.67;2161534;82;21139;-70
2021/03/06 04:20:18;;;;;;;38.88;13.75;;;;;;;-5.16;80.90;100100.19;2161267;82;21756;-70
2021/03/06 04:23:20;;;;;;;40.23;15.40;;;;;;;-5.07;80.56;100098.25;2140284;82;21705;-70
2021/03/06 04:26:23;;;;;;;49.40;17.95;;;;;;;-4.99;80.45;100104.41;2139958;82;21133;-69
2021/03/06 04:29:25;;;;;;;55.63;20.90;;;;;;;-4.96;79.68;100103.62;2161160;82;21710;-66
2021/03/06 04:32:27;;;;;;;59.38;22.48;;;;;;;-4.91;79.50;100099.48;2161159;82;21259;-66
2021/03/06 04:35:29;;;;;;;53.25;21.02;;;;;;;-4.96;79.22;100105.75;2161428;82;21262;-68
2021/03/06 04:38:31;;;;;;;92.78;35.13;;;;;;;-4.94;78.93;100113.07;2161146;82;21270;-68
2021/03/06 04:41:33;;;;;;;53.10;20.27;;;;;;;-4.90;78.88;100114.87;2161153;82;21281;-68
2021/03/06 04:44:35;;;;;;;50.23;18.15;;;;;;;-4.87;78.93;100112.77;2161573;82;21277;-70
2021/03/06 04:47:37;;;;;;;38.70;15.88;;;;;;;-4.83;78.88;100115.00;2161333;82;21272;-69
2021/03/06 04:50:39;;;;;;;67.25;26.52;;;;;;;-4.83;78.41;100126.52;2161196;82;21606;-69
2021/03/06 04:53:41;;;;;;;78.85;32.38;;;;;;;-4.89;78.19;100119.56;2161195;82;21309;-68
2021/03/06 04:56:44;;;;;;;81.28;31.48;;;;;;;-4.95;78.04;100124.13;2161570;82;21278;-69
2021/03/06 04:59:48;;;;;;;73.45;27.70;;;;;;;-5.01;78.02;100121.44;2161536;82;21296;-70
2021/03/06 05:02:50;;;;;;;63.05;25.30;;;;;;;-5.03;78.01;100119.25;2161406;82;21313;-71
2021/03/06 05:05:52;;;;;;;;;;;;;;;-5.03;78.15;100119.25;2163616;82;21285;-69
2021/03/06 05:08:54;;;;;;;71.47;24.60;;;;;;;-5.01;77.88;100121.84;2161380;82;20536;-70
2021/03/06 05:11:56;;;;;;;65.72;22.25;;;;;;;-5.01;77.84;100135.91;2161560;82;21301;-69
2021/03/06 05:14:58;;;;;;;54.48;18.73;;;;;;;-5.01;77.94;100130.79;2161169;82;21729;-69
2021/03/06 05:18:00;;;;;;;64.65;21.52;;;;;;;-5.03;77.92;100135.87;2163697;81;21162;-68
2021/03/06 05:21:02;;;;;;;59.20;21.57;;;;;;;-4.97;78.29;100136.04;2178674;81;21336;-70
2021/03/06 05:24:05;;;;;;;53.17;20.15;;;;;;;-4.95;77.78;100128.39;2178603;81;21256;-67
2021/03/06 05:27:07;;;;;;;54.38;21.02;;;;;;;-4.88;78.07;100128.98;2178545;81;21724;-65
2021/03/06 05:30:09;;;;;;;53.42;20.37;;;;;;;-4.87;77.73;100129.02;2178551;81;21296;-66
2021/03/06 05:33:11;;;;;;;59.98;23.00;;;;;;;-4.85;77.72;100132.89;2178780;81;21281;-66
2021/03/06 05:36:13;;;;;;;53.60;21.68;;;;;;;-4.76;77.85;100131.80;2178605;81;21103;-67
2021/03/06 05:39:15;;;;;;;58.28;21.27;;;;;;;-4.64;77.40;100131.22;2178538;81;21736;-70
2021/03/06 05:42:17;;;;;;;66.02;24.57;;;;;;;-4.58;77.45;100128.78;2178590;81;21300;-68
2021/03/06 05:45:19;;;;;;;63.50;25.25;;;;;;;-4.49;77.29;100132.37;2178563;81;21740;-70
2021/03/06 05:48:21;;;;;;;77.30;28.25;;;;;;;-4.33;77.68;100139.95;2178770;81;21256;-70
2021/03/06 05:51:24;;;;;;;81.12;31.30;;;;;;;-4.18;76.94;100143.69;2178397;82;21295;-68
2021/03/06 05:54:27;;;;;;;76.25;31.12;;;;;;;-4.16;76.74;100146.70;2178515;81;21720;-70
2021/03/06 05:57:29;;;;;;;83.70;30.82;;;;;;;-4.15;76.89;100150.97;2178563;81;21281;-70
2021/03/06 06:00:32;;;;;;;74.53;29.23;;;;;;;-4.04;76.84;100153.34;2178465;81;21741;-70
2021/03/06 06:03:34;;;;;;;60.20;24.18;;;;;;;-3.91;76.88;100157.85;2178629;81;21717;-70
2021/03/06 06:06:36;;;;;;;57.65;22.35;;;;;;;-3.79;76.73;100161.48;2178878;82;21150;-68
2021/03/06 06:09:38;;;;;;;54.27;22.87;;;;;;;-3.55;76.67;100163.23;2178523;81;21289;-67
2021/03/06 06:12:40;;;;;;;57.78;23.42;;;;;;;-3.44;76.52;100168.97;2178546;81;21293;-68
2021/03/06 06:15:42;;;;;;;55.50;22.75;;;;;;;-3.22;76.87;100174.91;2178655;81;21293;-66
2021/03/06 06:18:45;;;;;;;51.70;22.10;;;;;;;-2.86;76.54;100180.19;2173042;81;21318;-67
2021/03/06 06:21:47;;;;;;;54.85;22.77;;;;;;;-2.60;76.11;100187.41;2161007;82;21143;-66
2021/03/06 06:24:49;;;;;;;55.92;21.35;;;;;;;-2.52;75.34;100189.65;2161351;82;21293;-67
2021/03/06 06:27:52;;;;;;;;;;;;;;;-2.82;75.50;100194.77;2163692;82;21285;-66
2021/03/06 06:30:54;;;;;;;62.17;23.73;;;;;;;-3.03;76.11;100196.61;2161208;82;20142;-66
2021/03/06 06:33:56;;;;;;;54.58;20.80;;;;;;;-3.17;76.97;100197.66;2161355;82;21289;-67
2021/03/06 06:36:58;;;;;;;54.30;21.82;;;;;;;-3.16;77.35;100206.20;2161346;82;21274;-65
2021/03/06 06:40:01;;;;;;;55.33;20.50;;;;;;;-3.11;77.91;100205.88;2161171;82;21293;-65
2021/03/06 06:43:03;;;;;;;62.27;23.30;;;;;;;-3.10;78.60;100213.15;2161075;82;21586;-65
2021/03/06 06:46:05;;;;;;;41.25;15.20;;;;;;;-3.06;78.11;100222.23;2161236;82;21297;-65
2021/03/06 06:49:07;;;;;;;42.75;17.35;;;;;;;-3.04;78.35;100226.11;2161096;82;21135;-65
2021/03/06 06:52:09;;;;;;;40.10;15.72;;;;;;;-2.93;78.89;100224.98;2161106;82;21543;-67
2021/03/06 06:55:11;;;;;;;43.68;14.93;;;;;;;-2.82;78.06;100236.30;2161323;82;21607;-64
2021/03/06 06:58:13;;;;;;;37.03;14.68;;;;;;;-2.72;77.99;100247.16;2161064;82;21154;-65
2021/03/06 07:01:15;;;;;;;46.13;15.98;;;;;;;-2.63;77.76;100244.75;2161067;82;21135;-66
2021/03/06 07:04:18;;;;;;;39.48;15.10;;;;;;;-2.55;78.58;100245.28;2161066;82;21753;-65
2021/03/06 07:07:21;;;;;;;46.08;17.05;;;;;;;-2.45;78.28;100256.14;2161170;82;21265;-65
2021/03/06 07:10:23;;;;;;;42.90;16.95;;;;;;;-2.37;77.38;100245.95;2161170;82;21566;-67
2021/03/06 07:13:25;;;;;;;40.70;16.00;;;;;;;-2.29;77.39;100249.51;2161523;82;21310;-66
2021/03/06 07:16:27;;;;;;;43.70;15.80;;;;;;;-2.22;77.53;100246.17;2161108;82;21146;-66
2021/03/06 07:19:30;;;;;;;44.53;15.40;;;;;;;-2.05;77.15;100246.41;2160980;81;21606;-65
2021/03/06 07:22:33;;;;;;;44.58;15.83;;;;;;;-1.86;77.91;100251.79;2161062;82;21294;-66
2021/03/06 07:25:36;;;;;;;44.03;16.35;;;;;;;-1.75;76.16;100255.36;2161067;82;21570;-65
2021/03/06 07:28:38;;;;;;;41.20;16.55;;;;;;;-1.69;76.20;100249.42;2161066;82;21730;-66
2021/03/06 07:31:40;;;;;;;43.10;15.15;;;;;;;-1.56;76.92;100255.14;2161061;82;21139;-65
2021/03/06 07:34:42;;;;;;;43.68;16.02;;;;;;;-1.54;76.19;100256.44;2161149;82;21725;-66
2021/03/06 07:37:44;;;;;;;42.78;15.15;;;;;;;-1.23;75.14;100257.63;2161422;82;21290;-65
2021/03/06 07:40:46;;;;;;;41.73;15.03;;;;;;;-1.23;75.14;100257.63;2161033;82;21095;-66
2021/03/06 07:43:48;;;;;;;42.40;16.70;;;;;;;-1.13;74.56;100262.45;2161048;82;21167;-66
2021/03/06 07:46:51;;;;;;;;;;;;;;;-1.03;75.32;100259.11;2163489;82;21293;-68
2021/03/06 07:49:53;;;;;;;46.83;16.90;;;;;;;-0.67;75.31;100251.69;2140057;82;20134;-65
2021/03/06 07:52:55;;;;;;;43.92;18.52;;;;;;;-0.54;74.38;100248.34;2161051;82;21165;-67
2021/03/06 07:55:57;;;;;;;45.28;16.95;;;;;;;-0.37;74.62;100247.16;2161492;82;21274;-65
2021/03/06 07:58:59;;;;;;;46.37;17.50;;;;;;;-0.05;75.00;100246.48;2161033;82;21558;-66
2021/03/06 08:02:02;;;;;;;46.23;17.45;;;;;;;0.41;72.66;100231.17;2161155;82;21136;-66
2021/03/06 08:05:04;;;;;;;45.15;17.42;;;;;;;0.41;72.66;100231.17;2161047;82;21108;-66
2021/03/06 08:08:06;;;;;;;39.33;15.03;;;;;;;0.57;72.56;100242.39;2161068;82;21390;-69
2021/03/06 08:11:08;;;;;;;41.83;14.60;;;;;;;0.56;70.95;100242.39;2161135;82;21596;-67
2021/03/06 08:14:10;;;;;;;36.85;14.23;;;;;;;0.39;71.20;100247.09;2161010;82;21602;-70
2021/03/06 08:17:12;;;;;;;36.25;13.05;;;;;;;0.18;71.15;100249.60;2161211;82;21306;-68
2021/03/06 08:20:14;;;;;;;39.70;15.30;;;;;;;0.31;71.13;100238.45;2160965;82;21161;-68
2021/03/06 08:23:16;;;;;;;35.95;13.65;;;;;;;0.41;71.79;100245.81;2161051;82;21602;-67
2021/03/06 08:26:18;;;;;;;35.17;11.43;;;;;;;0.44;71.73;100243.23;2161180;82;21182;-65
2021/03/06 08:29:20;;;;;;;31.60;10.45;;;;;;;0.49;70.66;100244.13;2161103;82;21309;-66
2021/03/06 08:32:22;;;;;;;30.48;11.53;;;;;;;0.57;70.83;100238.52;2161062;82;21578;-66
2021/03/06 08:35:26;;;;;;;30.70;10.10;;;;;;;0.65;70.28;100241.99;2160997;82;21170;-67
2021/03/06 08:38:28;;;;;;;29.27;9.65;;;;;;;0.63;68.81;100242.44;2160880;82;21148;-66
2021/03/06 08:41:31;;;;;;;34.83;10.23;;;;;;;0.61;68.83;100241.99;2140095;82;21606;-66
2021/03/06 08:44:33;;;;;;;35.40;12.37;;;;;;;0.60;68.20;100243.69;2161218;82;21275;-67
2021/03/06 08:47:35;;;;;;;37.20;12.98;;;;;;;0.69;71.15;100245.46;2161163;82;21611;-66
2021/03/06 08:50:37;;;;;;;36.08;12.28;;;;;;;0.88;70.03;100241.59;2160998;82;21289;-66
2021/03/06 08:53:39;;;;;;;26.90;9.43;;;;;;;1.16;70.54;100241.19;2139911;82;21290;-67
2021/03/06 08:56:41;;;;;;;26.80;7.80;;;;;;;1.39;68.65;100246.34;2139976;82;21293;-67
2021/03/06 08:59:43;;;;;;;27.85;9.33;;;;;;;1.35;65.93;100250.67;2161107;81;21139;-67
2021/03/06 09:02:45;;;;;;;29.02;9.25;;;;;;;1.26;67.01;100253.69;2161043;82;21586;-67
2021/03/06 09:05:47;;;;;;;29.32;10.00;;;;;;;1.43;68.47;100248.06;2161077;82;21127;-66
2021/03/06 09:08:50;;;;;;;24.07;8.25;;;;;;;1.75;67.23;100245.00;2161011;82;21131;-67
2021/03/06 09:11:52;;;;;;;27.98;8.20;;;;;;;1.88;66.59;100242.80;2161143;82;21120;-66
2021/03/06 09:14:54;;;;;;;28.10;8.30;;;;;;;1.88;63.91;100251.86;2161164;82;21289;-66
2021/03/06 09:17:57;;;;;;;23.73;8.10;;;;;;;1.97;64.22;100239.33;2161436;82;21127;-66
2021/03/06 09:21:00;;;;;;;23.85;7.08;;;;;;;2.11;65.84;100225.90;2174152;81;21296;-67
2021/03/06 09:24:02;;;;;;;23.90;7.17;;;;;;;2.30;60.86;100246.12;2178606;81;21273;-67
2021/03/06 09:27:05;;;;;;;28.67;8.10;;;;;;;2.14;61.20;100233.68;2178474;81;21304;-66
2021/03/06 09:30:07;;;;;;;26.95;8.63;;;;;;;2.13;60.28;100241.01;2178550;81;21115;-67
2021/03/06 09:33:09;;;;;;;25.88;7.08;;;;;;;2.19;63.65;100236.24;2178567;81;21742;-67
2021/03/06 09:36:11;;;;;;;23.87;8.08;;;;;;;2.16;61.95;100235.81;2178827;81;21332;-66
2021/03/06 09:39:14;;;;;;;25.50;7.80;;;;;;;1.72;65.34;100249.34;2178614;81;21721;-66
2021/03/06 09:42:16;;;;;;;23.83;8.48;;;;;;;1.51;62.99;100257.98;2178610;81;21605;-67
2021/03/06 09:45:18;;;;;;;24.65;7.95;;;;;;;1.76;64.80;100252.77;2178705;81;21281;-68
2021/03/06 09:48:20;;;;;;;26.25;7.00;;;;;;;2.13;64.24;100250.07;2178543;82;21701;-67
2021/03/06 09:51:22;;;;;;;24.30;7.83;;;;;;;2.16;62.86;100254.38;2178579;81;21276;-66
2021/03/06 09:54:25;;;;;;;24.45;7.62;;;;;;;2.64;61.95;100253.70;2178648;81;21127;-67
2021/03/06 09:57:27;;;;;;;24.07;7.60;;;;;;;2.94;59.51;100257.86;2178443;82;21276;-66
2021/03/06 10:00:29;;;;;;;26.40;8.40;;;;;;;3.16;58.66;100249.92;2178535;81;21150;-67
2021/03/06 10:03:31;;;;;;;27.15;7.22;;;;;;;3.53;59.20;100261.70;2150782;82;21728;-66
2021/03/06 10:06:33;;;;;;;25.17;8.05;;;;;;;2.98;57.44;100254.80;2178850;82;21154;-68
2021/03/06 10:09:35;;;;;;;24.02;7.37;;;;;;;3.11;59.11;100247.34;2178535;82;21284;-68
2021/03/06 10:12:37;;;;;;;22.20;6.92;;;;;;;3.21;58.32;100247.28;2178559;81;21134;-67
2021/03/06 10:15:39;;;;;;;24.27;7.35;;;;;;;3.39;57.80;100248.84;2178480;81;21296;-71
2021/03/06 10:18:41;;;;;;;26.52;7.75;;;;;;;2.91;58.49;100252.67;2178501;81;21135;-72
2021/03/06 10:21:43;;;;;;;22.05;5.97;;;;;;;2.75;58.82;100250.62;2162550;81;21634;-66
2021/03/06 10:24:45;;;;;;;19.20;5.08;;;;;;;2.87;55.49;100248.38;2161142;82;21163;-67
2021/03/06 10:27:48;;;;;;;20.12;5.60;;;;;;;2.92;55.10;100257.44;2161021;82;21629;-68
2021/03/06 10:30:50;;;;;;;20.55;5.45;;;;;;;3.04;55.35;100240.48;2161111;82;21131;-66
2021/03/06 10:33:52;;;;;;;20.32;5.37;;;;;;;3.23;56.95;100255.90;2140129;82;21736;-66
2021/03/06 10:36:55;;;;;;;19.15;5.33;;;;;;;2.67;52.42;100256.72;2161348;82;21289;-66
2021/03/06 10:39:58;;;;;;;18.87;5.12;;;;;;;2.38;54.94;100240.45;2139781;82;22545;-66
2021/03/06 10:43:00;;;;;;;19.30;5.05;;;;;;;2.36;58.50;100240.06;2161328;82;21697;-67
2021/03/06 10:46:02;;;;;;;19.87;5.00;;;;;;;2.73;57.81;100242.42;2161106;82;21131;-68
2021/03/06 10:49:04;;;;;;;20.60;5.40;;;;;;;2.73;56.81;100237.23;2161070;82;21108;-66
2021/03/06 10:52:10;;;;;;;20.23;5.25;;;;;;;2.57;57.82;100233.88;2161440;82;21296;-67
2021/03/06 10:55:10;;;;;;;24.25;5.60;;;;;;;2.37;57.56;100228.81;2160849;82;21290;-72
2021/03/06 10:58:12;;;;;;;20.70;5.08;;;;;;;2.48;57.68;100226.17;2161156;82;21270;-68
2021/03/06 11:01:16;;;;;;;23.52;5.53;;;;;;;2.88;56.19;100221.59;2161115;82;21135;-68
2021/03/06 11:04:18;;;;;;;20.82;5.50;;;;;;;2.88;55.97;100219.00;2160904;82;21496;-68
2021/03/06 11:07:20;;;;;;;20.12;5.28;;;;;;;2.83;55.64;100219.48;2161091;82;21614;-67
2021/03/06 11:10:22;;;;;;;20.97;5.70;;;;;;;2.98;54.04;100215.06;2161533;82;21286;-67
2021/03/06 11:13:24;;;;;;;21.17;5.50;;;;;;;2.84;51.36;100199.16;2161074;82;21170;-67
2021/03/06 11:16:27;;;;;;;20.30;5.50;;;;;;;3.26;53.42;100195.80;2161115;82;21131;-68
2021/03/06 11:19:29;;;;;;;19.37;4.30;;;;;;;3.87;51.38;100199.92;2161127;82;21298;-67
2021/03/06 11:22:31;;;;;;;18.73;4.75;;;;;;;4.11;45.98;100209.16;2161316;82;21697;-68
2021/03/06 11:25:33;;;;;;;17.45;4.28;;;;;;;4.24;48.13;100192.11;2161314;82;21293;-67
2021/03/06 11:28:36;;;;;;;14.58;3.83;;;;;;;4.36;46.41;100197.15;2161027;82;21595;-67
2021/03/06 11:31:38;;;;;;;17.12;4.33;;;;;;;3.80;43.15;100196.53;2161034;82;21159;-67
2021/03/06 11:34:40;;;;;;;;;;;;;;;4.16;44.51;100186.58;2163456;82;21166;-67
2021/03/06 11:37:43;;;;;;;17.48;4.17;;;;;;;4.22;44.02;100174.40;2160986;82;20446;-68
2021/03/06 11:40:45;;;;;;;18.30;4.62;;;;;;;4.41;42.23;100165.48;2139975;82;21607;-67
2021/03/06 11:43:48;;;;;;;16.30;3.90;;;;;;;4.84;45.75;100164.83;2161075;82;21115;-68
2021/03/06 11:46:50;;;;;;;19.23;4.80;;;;;;;4.88;43.39;100169.97;2161156;82;21579;-68
2021/03/06 11:49:52;;;;;;;19.15;4.80;;;;;;;5.05;44.04;100151.05;2161015;82;21182;-68
2021/03/06 11:52:54;;;;;;;15.78;4.08;;;;;;;5.23;42.92;100157.68;2161108;82;21708;-67
2021/03/06 11:55:56;;;;;;;15.83;3.70;;;;;;;5.40;44.03;100150.00;2161184;82;21132;-67
2021/03/06 11:58:58;;;;;;;18.00;3.92;;;;;;;5.74;44.50;100138.49;2161103;82;21623;-67
2021/03/06 12:02:00;;;;;;;12.10;3.15;;;;;;;5.82;38.78;100152.64;2161055;82;21135;-68
2021/03/06 12:05:02;;;;;;;18.42;4.15;;;;;;;5.52;39.36;100147.18;2161297;82;21285;-67
2021/03/06 12:08:05;;;;;;;13.45;3.40;;;;;;;5.26;39.45;100143.31;2161384;82;21280;-67
2021/03/06 12:11:07;;;;;;;16.45;4.40;;;;;;;5.26;39.45;100143.31;2161059;82;21151;-67
2021/03/06 12:14:09;;;;;;;15.85;3.80;;;;;;;5.62;44.70;100127.89;2161028;81;21167;-67
2021/03/06 12:17:11;;;;;;;15.83;4.03;;;;;;;5.81;43.66;100128.36;2161047;82;21171;-67
2021/03/06 12:20:13;;;;;;;17.65;3.98;;;;;;;6.10;42.40;100122.16;2160973;81;21191;-68
2021/03/06 12:23:15;;;;;;;16.50;4.25;;;;;;;6.44;43.24;100128.77;2161191;82;21119;-68
2021/03/06 12:26:17;;;;;;;17.05;4.15;;;;;;;6.51;43.21;100118.62;2160998;82;21593;-67
2021/03/06 12:29:20;;;;;;;15.75;4.08;;;;;;;6.62;41.04;100115.73;2161221;82;21717;-67
2021/03/06 12:32:22;;;;;;;17.27;4.47;;;;;;;6.57;41.47;100108.03;2161034;81;21135;-68
2021/03/06 12:35:24;;;;;;;19.62;4.45;;;;;;;6.31;39.89;100104.75;2161010;82;21179;-68
2021/03/06 12:38:26;;;;;;;16.42;4.10;;;;;;;6.31;40.50;100109.11;2161037;82;21273;-68
2021/03/06 12:41:28;;;;;;;12.20;3.17;;;;;;;6.45;39.38;100109.64;2161167;82;21285;-68
2021/03/06 12:44:30;;;;;;;13.15;3.30;;;;;;;6.26;37.12;100092.71;2161234;82;21278;-67
2021/03/06 12:47:32;;;;;;;16.48;3.90;;;;;;;6.14;37.54;100097.30;2161233;82;21289;-69
2021/03/06 12:50:34;;;;;;;15.50;3.80;;;;;;;5.67;40.05;100112.17;2161217;82;21282;-68
2021/03/06 12:53:36;;;;;;;15.63;4.10;;;;;;;5.61;39.06;100094.92;2140110;82;21273;-67
2021/03/06 12:56:39;;;;;;;14.13;3.83;;;;;;;5.48;38.41;100099.52;2161547;82;21273;-67
2021/03/06 12:59:41;;;;;;;16.50;4.10;;;;;;;5.85;39.37;100092.27;2161189;82;21285;-67
2021/03/06 13:02:43;;;;;;;11.15;2.95;;;;;;;6.31;41.04;100098.69;2161205;82;21718;-68
2021/03/06 13:05:46;;;;;;;11.05;2.92;;;;;;;6.56;38.30;100093.73;2161190;82;21277;-67
2021/03/06 13:08:48;;;;;;;17.62;4.15;;;;;;;6.61;35.89;100068.84;2161186;82;21128;-69
2021/03/06 13:11:50;;;;;;;18.30;4.10;;;;;;;6.40;38.56;100081.52;2140225;82;21270;-70
2021/03/06 13:14:52;;;;;;;13.70;3.33;;;;;;;6.10;37.25;100085.23;2161480;82;21297;-67
2021/03/06 13:17:54;;;;;;;17.32;3.87;;;;;;;5.89;37.26;100093.91;2161229;82;21302;-68
2021/03/06 13:20:56;;;;;;;14.23;3.33;;;;;;;5.73;37.15;100089.91;2164514;81;21273;-70
2021/03/06 13:23:58;;;;;;;17.62;3.80;;;;;;;5.53;35.94;100064.28;2171322;82;21305;-68
2021/03/06 13:27:00;;;;;;;12.00;3.10;;;;;;;5.44;36.35;100083.55;2171294;82;21151;-72
2021/03/06 13:30:02;;;;;;;12.53;3.45;;;;;;;5.29;35.90;100092.98;2171398;82;21158;-69
2021/03/06 13:33:04;;;;;;;13.55;3.87;;;;;;;5.27;35.62;100080.00;2171434;82;21269;-68
2021/03/06 13:36:06;;;;;;;18.37;4.10;;;;;;;5.22;36.79;100079.67;2171327;82;21288;-67
2021/03/06 13:39:08;;;;;;;18.98;4.80;;;;;;;5.31;36.44;100080.33;2171298;82;21281;-67
2021/03/06 13:42:10;;;;;;;15.30;3.92;;;;;;;5.38;39.48;100083.68;2171425;82;21277;-67
2021/03/06 13:45:12;;;;;;;17.80;4.45;;;;;;;5.38;35.94;100084.98;2141611;82;21269;-67
2021/03/06 13:48:14;;;;;;;17.40;4.50;;;;;;;5.34;37.71;100075.52;2171552;82;21318;-68
2021/03/06 13:51:17;;;;;;;16.35;4.35;;;;;;;5.47;36.75;100039.24;2171291;82;21709;-72
2021/03/06 13:54:19;;;;;;;16.45;4.40;;;;;;;5.50;37.38;100065.23;2141701;82;21269;-69
2021/03/06 13:57:21;;;;;;;16.87;4.42;;;;;;;5.47;36.48;100071.77;2141842;82;21281;-67
2021/03/06 14:00:23;;;;;;;17.98;4.42;;;;;;;5.24;36.13;100073.53;2171630;82;21123;-67